Time;durP1;ratioP1;P1;durP2;ratioP2;P2;SDS_P1;SDS_P2;PMS_P1;PMS_P2;Temp;Humidity;BMP_temperature;BMP_pressure;BME280_temperature;BME280_humidity;BME280_pressure;Samples;Min_cycle;Max_cycle;Signal;HPM_P1;HPM_P2
2022/09/04 00:00:18;;;;;;;2.47;2.10;;;21.20;96.10;;;21.46;62.74;98628.94;5014334;27;114128;-78
2022/09/04 00:03:06;;;;;;;3.83;2.07;;;21.10;96.20;;;21.45;62.88;98630.16;5019619;27;113797;-77
2022/09/04 00:05:40;;;;;;;2.20;1.87;;;21.10;96.30;;;21.43;62.88;98626.91;5023465;28;123904;-79
2022/09/04 00:08:31;;;;;;;2.90;2.20;;;21.10;96.30;;;21.41;62.62;98632.09;5012876;28;123883;-78
2022/09/04 00:11:43;;;;;;;1.90;1.70;;;21.00;96.20;;;21.38;62.54;98635.69;5021734;28;114206;-78
2022/09/04 00:14:21;;;;;;;2.20;1.87;;;21.00;96.20;;;21.39;62.61;98631.72;5019655;27;113971;-78
2022/09/04 00:17:00;;;;;;;3.30;2.00;;;21.00;96.20;;;21.38;62.20;98632.88;5018799;28;124090;-80
2022/09/04 00:19:43;;;;;;;2.00;1.63;;;21.00;96.30;;;21.38;62.45;98630.88;5013713;27;125044;-78
2022/09/04 00:22:43;;;;;;;2.23;1.70;;;21.00;96.20;;;21.37;62.47;98634.06;5010407;27;113448;-78
2022/09/04 00:25:28;;;;;;;4.20;1.93;;;21.00;96.20;;;21.37;61.72;98631.25;5020277;28;113935;-78
2022/09/04 00:28:20;;;;;;;3.30;1.80;;;21.00;96.10;;;21.36;62.08;98629.66;5013163;28;124769;-78
2022/09/04 00:31:05;;;;;;;2.93;1.77;;;21.00;96.10;;;21.35;62.06;98633.63;5012588;27;123705;-77
2022/09/04 00:33:47;;;;;;;2.40;2.10;;;21.00;96.10;;;21.29;62.02;98629.59;5024926;28;112680;-78
2022/09/04 00:36:16;;;;;;;2.00;1.70;;;20.90;95.90;;;21.26;61.97;98638.78;5028655;27;114005;-77
2022/09/04 00:38:52;;;;;;;2.97;2.10;;;20.90;96.00;;;21.25;61.76;98631.53;5021496;28;123280;-78
2022/09/04 00:42:02;;;;;;;1.73;1.57;;;20.90;96.00;;;21.21;61.78;98637.13;4994696;28;125132;-77
2022/09/04 00:45:07;;;;;;;2.03;1.67;;;20.90;96.00;;;21.16;62.04;98646.72;5014984;28;114574;-77
2022/09/04 00:48:05;;;;;;;2.60;2.30;;;20.80;95.90;;;21.15;62.07;98639.50;5019894;28;115387;-77
2022/09/04 00:51:34;;;;;;;2.53;1.87;;;20.80;96.00;;;21.13;62.06;98639.06;5016764;28;123988;-78
2022/09/04 00:54:12;;;;;;;3.10;1.60;;;20.80;96.10;;;21.13;62.56;98647.50;5025892;27;123807;-79
2022/09/04 00:57:16;;;;;;;3.40;2.10;;;20.70;96.20;;;21.15;62.39;98645.13;5015737;28;114511;-80
2022/09/04 00:59:45;;;;;;;2.40;2.17;;;20.70;96.30;;;21.16;62.65;98652.34;5017982;28;114784;-78
2022/09/04 01:02:17;;;;;;;4.73;2.70;;;20.70;96.30;;;21.17;62.80;98648.34;5022261;27;124376;-77
2022/09/04 01:05:44;;;;;;;3.73;2.20;;;20.70;96.50;;;21.15;62.63;98656.34;5019540;28;124143;-78
2022/09/04 01:09:03;;;;;;;2.83;2.10;;;20.70;96.50;;;21.15;62.52;98659.16;5023272;28;114683;-78
2022/09/04 01:11:48;;;;;;;2.10;1.90;;;20.70;96.50;;;21.18;62.58;98664.00;5023260;28;113898;-80
2022/09/04 01:14:58;;;;;;;2.87;2.07;;;20.70;96.50;;;21.17;62.38;98670.00;5017449;28;124537;-79
2022/09/04 01:18:03;;;;;;;2.50;2.23;;;20.80;96.60;;;21.18;62.79;98649.97;5028860;28;123924;-79
2022/09/04 01:21:14;;;;;;;4.83;2.00;;;20.80;96.60;;;21.19;62.82;98660.00;5011236;28;114673;-78
2022/09/04 01:24:16;;;;;;;3.30;2.23;;;20.80;96.60;;;21.18;62.34;98666.81;5014479;27;114086;-80
2022/09/04 01:27:23;;;;;;;2.10;1.80;;;20.80;96.60;;;21.18;62.31;98671.63;5011658;28;123907;-78
2022/09/04 01:30:09;;;;;;;3.63;2.53;;;20.70;96.50;;;21.15;62.68;98676.03;5012800;28;123672;-79
2022/09/04 01:32:49;;;;;;;3.63;2.40;;;20.80;96.50;;;21.15;62.38;98673.22;5011076;28;114359;-78
2022/09/04 01:35:34;;;;;;;2.63;2.13;;;20.70;96.50;;;21.12;62.80;98679.63;5015645;28;113919;-77
2022/09/04 01:38:37;;;;;;;3.10;2.27;;;20.70;96.60;;;21.11;62.63;98680.78;5011480;27;124025;-79
2022/09/04 01:41:25;;;;;;;2.07;1.87;;;20.50;96.40;;;21.08;62.65;98677.94;5022430;28;124461;-79
2022/09/04 01:43:52;;;;;;;2.30;2.10;;;20.70;96.50;;;21.04;62.70;98677.94;5030278;27;115028;-78
2022/09/04 01:46:37;;;;;;;4.03;2.30;;;20.60;96.40;;;21.01;62.74;98681.50;5015415;27;115208;-78
2022/09/04 01:49:38;;;;;;;3.13;2.63;;;20.70;96.40;;;20.97;62.50;98700.31;5009793;28;124453;-77
2022/09/04 01:52:37;;;;;;;2.33;2.13;;;20.60;96.40;;;20.93;62.72;98694.66;5017909;27;122212;-77
2022/09/04 01:56:04;;;;;;;3.80;2.20;;;20.60;96.50;;;20.91;62.63;98697.03;5028035;27;114331;-77
2022/09/04 01:58:52;;;;;;;4.17;2.13;;;20.60;96.50;;;20.92;62.87;98693.03;5018999;27;113103;-77
2022/09/04 02:01:31;;;;;;;3.87;2.20;;;20.50;96.50;;;20.92;62.81;98692.22;5025961;27;124378;-78
2022/09/04 02:04:19;;;;;;;2.70;2.07;;;20.50;96.50;;;20.91;62.74;98704.66;5011429;27;123815;-78
2022/09/04 02:07:31;;;;;;;3.50;2.37;;;20.50;96.50;;;20.86;62.44;98705.00;5019032;27;114803;-77
2022/09/04 02:10:45;;;;;;;4.73;2.37;;;20.50;96.40;;;20.82;62.66;98704.97;5012482;28;114150;-80
2022/09/04 02:13:42;;;;;;;3.83;2.07;;;20.40;96.50;;;20.73;62.25;98702.44;5013588;28;124251;-78
2022/09/04 02:16:55;;;;;;;2.93;2.40;;;20.40;96.40;;;20.67;62.52;98706.00;5016595;28;123952;-79
2022/09/04 02:19:59;;;;;;;3.23;2.20;;;20.30;96.40;;;20.65;62.38;98708.38;5001210;28;114739;-79
2022/09/04 02:22:55;;;;;;;3.20;2.60;;;20.30;96.40;;;20.59;62.54;98713.50;5026724;27;114079;-79
2022/09/04 02:25:28;;;;;;;3.83;2.30;;;20.20;96.30;;;20.60;62.68;98708.69;5027343;27;123925;-78
2022/09/04 02:28:39;;;;;;;3.00;2.30;;;20.20;96.30;;;20.60;62.47;98703.88;4970656;28;123227;-77
2022/09/04 02:31:44;;;;;;;2.33;2.07;;;20.20;96.40;;;20.60;62.63;98711.50;4983698;28;114139;-80
2022/09/04 02:34:43;;;;;;;2.40;1.73;;;20.20;96.40;;;20.62;62.70;98718.34;4985104;28;113341;-78
2022/09/04 02:37:56;;;;;;;3.00;2.60;;;20.20;96.50;;;20.63;62.88;98716.34;4948627;28;123757;-76
2022/09/04 02:41:19;;;;;;;2.67;2.20;;;20.20;96.50;;;20.61;62.61;98715.94;4941506;28;124127;-79
2022/09/04 02:44:32;;;;;;;3.73;1.93;;;20.20;96.40;;;20.60;62.66;98703.09;4917628;28;115263;-79
2022/09/04 02:47:27;;;;;;;2.70;2.10;;;20.20;96.40;;;20.61;62.57;98713.94;4957004;28;114112;-80
2022/09/04 02:50:12;;;;;;;2.20;2.00;;;20.20;96.50;;;20.63;62.56;98716.34;4947240;28;124172;-82
2022/09/04 02:53:07;;;;;;;2.60;2.17;;;20.20;96.40;;;20.61;62.41;98711.13;4949846;28;122810;-78
2022/09/04 02:55:57;;;;;;;2.70;2.20;;;20.20;96.40;;;20.62;62.34;98712.75;4944248;28;114760;-78
2022/09/04 02:58:49;;;;;;;2.57;2.30;;;20.20;96.40;;;20.61;62.20;98713.94;4949760;28;113770;-77
2022/09/04 03:01:56;;;;;;;2.40;2.20;;;20.20;96.40;;;20.59;62.39;98719.13;4979073;28;124002;-78
2022/09/04 03:04:51;;;;;;;2.73;2.13;;;20.20;96.40;;;20.58;62.42;98711.06;4988637;28;122495;-79
2022/09/04 03:07:40;;;;;;;2.40;2.10;;;20.20;96.40;;;20.60;62.97;98720.72;4972793;28;114183;-77
2022/09/04 03:10:51;;;;;;;2.20;2.00;;;20.20;96.50;;;20.59;62.51;98713.50;5012653;28;113885;-78
2022/09/04 03:14:10;;;;;;;2.43;1.93;;;20.20;96.40;;;20.55;62.46;98723.88;4986331;27;124199;-77
2022/09/04 03:16:58;;;;;;;2.80;2.30;;;20.20;96.40;;;20.55;62.72;98720.25;5002238;27;123768;-77
2022/09/04 03:19:38;;;;;;;2.63;2.37;;;20.20;96.40;;;20.54;62.59;98730.69;4995910;28;112676;-77
2022/09/04 03:22:30;;;;;;;2.40;2.13;;;20.10;96.50;;;20.54;62.81;98715.84;5012562;28;113396;-77
2022/09/04 03:25:06;;;;;;;2.50;2.20;;;20.10;96.50;;;20.55;62.49;98725.88;5015517;28;123196;-78
2022/09/04 03:27:33;;;;;;;3.17;2.20;;;20.10;96.50;;;20.54;62.81;98727.88;5021898;27;122839;-80
2022/09/04 03:30:10;;;;;;;2.93;2.17;;;20.10;96.50;;;20.54;62.78;98724.28;5019997;27;113909;-78
2022/09/04 03:32:53;;;;;;;3.33;2.23;;;20.10;96.50;;;20.53;62.89;98726.25;4998872;28;113227;-77
2022/09/04 03:35:28;;;;;;;2.50;1.97;;;20.10;96.50;;;20.54;62.49;98727.88;5019247;27;124211;-78
2022/09/04 03:38:36;;;;;;;3.63;2.40;;;20.10;96.50;;;20.51;62.67;98731.41;5027531;27;122800;-79
2022/09/04 03:41:22;;;;;;;2.43;1.90;;;20.10;96.50;;;20.50;62.55;98733.44;5001588;28;114441;-78
2022/09/04 03:44:12;;;;;;;2.87;2.20;;;20.10;96.50;;;20.49;62.52;98733.78;5017033;28;115114;-77
2022/09/04 03:47:19;;;;;;;2.93;2.00;;;20.10;96.50;;;20.45;62.34;98736.56;4994716;28;124073;-79
2022/09/04 03:50:00;;;;;;;5.50;2.33;;;20.10;96.40;;;20.45;62.75;98730.16;4985592;28;124262;-79
2022/09/04 03:52:52;;;;;;;2.50;1.97;;;20.00;96.40;;;20.42;62.56;98734.53;4992028;28;114276;-78
2022/09/04 03:55:29;;;;;;;2.40;2.00;;;20.00;96.40;;;20.42;62.56;98734.53;5007182;28;114209;-77
2022/09/04 03:58:26;;;;;;;2.70;2.00;;;20.00;96.40;;;20.40;62.77;98747.31;4996365;28;123686;-78
2022/09/04 04:01:08;;;;;;;2.80;2.27;;;20.00;96.40;;;20.40;62.68;98742.50;4991524;28;124249;-78
2022/09/04 04:03:55;;;;;;;2.70;1.80;;;20.00;96.50;;;20.40;62.73;98742.50;4997322;28;114196;-77
2022/09/04 04:07:06;;;;;;;2.77;2.57;;;20.00;96.50;;;20.39;62.65;98742.88;4997622;28;113785;-77
2022/09/04 04:09:50;;;;;;;2.07;1.87;;;20.00;96.80;;;20.37;62.56;98745.28;5003517;28;124003;-77
2022/09/04 04:12:41;;;;;;;4.30;2.60;;;20.00;96.50;;;20.34;62.76;98746.00;5002467;28;123744;-81
2022/09/04 04:19:07;;;;;;;3.23;2.43;;;19.90;96.50;;;20.24;62.99;98753.09;5030360;28;114725;-78
2022/09/04 04:22:08;;;;;;;3.60;2.83;;;19.80;96.50;;;20.20;63.01;98760.63;4993249;28;124313;-77
2022/09/04 04:25:10;;;;;;;2.53;1.90;;;19.80;96.50;;;20.17;63.13;98772.63;4987226;28;124071;-78
2022/09/04 04:28:24;;;;;;;3.57;2.17;;;19.80;96.50;;;20.14;62.79;98765.75;5001492;28;114062;-77
2022/09/04 04:30:54;;;;;;;2.40;1.90;;;19.80;96.70;;;20.12;62.88;98775.75;4999755;28;114180;-77
2022/09/04 04:33:47;;;;;;;2.40;2.13;;;19.70;96.50;;;20.11;63.04;98777.75;4990296;28;122962;-76
2022/09/04 04:36:47;;;;;;;2.60;2.10;;;19.70;96.50;;;20.08;62.95;98768.09;4990549;28;123673;-77
2022/09/04 04:39:47;;;;;;;3.53;2.00;;;19.70;96.80;;;20.09;62.83;98780.09;4992908;28;115354;-78
2022/09/04 04:42:15;;;;;;;3.07;2.23;;;19.70;96.50;;;20.08;62.95;98784.13;4989560;28;115209;-78
2022/09/04 04:48:16;;;;;;;4.00;1.97;;;19.70;96.50;;;20.00;62.76;98791.59;4992519;28;124412;-77
2022/09/04 04:51:18;;;;;;;2.37;2.13;;;19.60;96.50;;;19.98;63.02;98791.16;4986610;28;114407;-77
2022/09/04 04:54:25;;;;;;;2.73;2.10;;;19.60;96.50;;;19.98;62.95;98795.97;5005006;28;114352;-80
2022/09/04 04:57:17;;;;;;;3.10;2.27;;;19.60;96.50;;;19.97;62.87;98806.38;4998895;28;124152;-79
2022/09/04 05:00:27;;;;;;;3.67;2.43;;;19.60;96.50;;;19.93;63.09;98810.28;4997145;28;123856;-77
2022/09/04 05:03:43;;;;;;;3.87;2.60;;;19.60;96.50;;;19.90;62.95;98814.66;4968130;28;115231;-76
2022/09/04 05:06:35;;;;;;;3.83;2.00;;;19.50;96.60;;;19.85;63.23;98821.41;4990435;28;114576;-77
2022/09/04 05:09:13;;;;;;;4.97;2.43;;;19.40;96.60;;;19.80;63.52;98830.13;4996275;28;123987;-77
2022/09/04 05:12:01;;;;;;;4.43;2.43;;;19.40;96.60;;;19.78;63.16;98834.50;4975268;28;122726;-77
2022/09/04 05:15:23;;;;;;;2.37;2.17;;;19.40;96.60;;;19.73;63.04;98835.59;4995336;28;114245;-78
2022/09/04 05:18:24;;;;;;;2.70;1.90;;;19.40;96.70;;;19.76;63.00;98839.66;4988885;28;114056;-77
2022/09/04 05:21:44;;;;;;;2.00;1.80;;;19.40;96.60;;;19.76;63.08;98840.47;4997509;28;124253;-77
2022/09/04 05:25:12;;;;;;;4.10;2.03;;;19.40;96.70;;;19.75;63.25;98847.25;4995201;28;123849;-78
2022/09/04 05:27:56;;;;;;;2.30;2.00;;;19.40;96.70;;;19.82;63.21;98840.94;4976118;28;114272;-77
2022/09/04 05:30:56;;;;;;;2.43;1.93;;;19.40;96.70;;;19.86;62.95;98850.25;4997492;28;114231;-77
2022/09/04 05:33:48;;;;;;;3.37;2.10;;;19.40;96.70;;;19.88;63.16;98852.66;4988021;28;124151;-76
2022/09/04 05:36:51;;;;;;;2.73;2.40;;;19.40;96.60;;;19.88;63.08;98858.28;4986117;28;124398;-77
2022/09/04 05:39:27;;;;;;;2.53;1.93;;;19.40;96.60;;;19.92;63.15;98867.56;4995623;28;115326;-76
2022/09/04 05:42:18;;;;;;;2.87;2.67;;;19.50;96.70;;;19.92;62.92;98871.19;4994651;28;115125;-77
2022/09/04 05:45:00;;;;;;;2.50;2.30;;;19.50;96.60;;;19.96;62.81;98874.03;5000909;28;124510;-78
2022/09/04 05:47:44;;;;;;;3.10;2.77;;;19.50;96.60;;;20.00;62.73;98883.34;4985894;28;123757;-76
2022/09/04 05:50:32;;;;;;;6.93;2.40;;;19.60;96.60;;;20.04;62.98;98879.44;4992019;28;114232;-76
2022/09/04 05:53:37;;;;;;;3.17;2.37;;;19.60;96.60;;;20.09;62.48;98881.09;4992523;28;113898;-76
2022/09/04 05:56:28;;;;;;;2.67;2.40;;;19.60;96.50;;;20.13;62.18;98887.59;4988100;28;124824;-76
2022/09/04 05:59:26;;;;;;;2.80;2.17;;;19.60;96.40;;;20.16;62.12;98892.44;4989039;28;123929;-77
2022/09/04 06:02:39;;;;;;;6.20;3.07;;;19.70;96.30;;;20.19;61.95;98891.69;5001791;28;113924;-77
2022/09/04 06:05:40;;;;;;;3.00;2.70;;;19.70;96.10;;;20.22;61.76;98895.75;5011184;28;113059;-76
2022/09/04 06:08:40;;;;;;;2.80;2.03;;;19.70;96.00;;;20.28;61.66;98897.03;5001499;28;124387;-76
2022/09/04 06:11:39;;;;;;;2.30;2.00;;;19.80;96.10;;;20.36;61.44;98904.41;4986728;27;123508;-76
2022/09/04 06:14:30;;;;;;;4.07;2.40;;;19.80;96.00;;;20.42;61.50;98907.72;5017127;27;114460;-77
2022/09/04 06:17:53;;;;;;;3.07;2.77;;;19.90;96.00;;;20.46;61.32;98900.16;5004805;27;113060;-77
2022/09/04 06:21:06;;;;;;;2.67;2.17;;;19.90;95.90;;;20.54;61.05;98906.72;5025393;27;124509;-78
2022/09/04 06:24:31;;;;;;;2.90;2.37;;;20.00;96.00;;;20.63;61.14;98910.91;4985556;28;121649;-78
2022/09/04 06:27:15;;;;;;;2.23;2.03;;;20.10;95.80;;;20.73;60.51;98912.25;4995584;28;113356;-79
2022/09/04 06:30:11;;;;;;;3.77;2.10;;;20.10;95.70;;;20.82;60.40;98906.34;4981163;28;114644;-76
2022/09/04 06:33:10;;;;;;;3.33;2.83;;;20.20;95.70;;;20.90;60.54;98919.31;4979720;28;123871;-76
2022/09/04 06:36:10;;;;;;;2.93;2.20;;;20.30;95.60;;;21.01;59.92;98925.06;4980925;28;122843;-78
2022/09/04 06:39:16;;;;;;;2.50;2.30;;;20.40;95.50;;;21.07;59.99;98918.75;4975100;28;115116;-78
2022/09/04 06:42:04;;;;;;;2.80;2.30;;;20.50;95.50;;;21.18;60.03;98919.72;4980724;28;114925;-76
2022/09/04 06:44:39;;;;;;;2.67;2.47;;;20.50;95.40;;;21.30;59.35;98924.28;4982087;28;125069;-77
2022/09/04 06:47:31;;;;;;;2.83;2.33;;;20.60;95.40;;;21.39;59.19;98912.78;4971052;28;123664;-76
2022/09/04 06:50:30;;;;;;;7.97;2.77;;;20.70;95.30;;;21.46;59.40;98924.09;4965842;28;114246;-76
2022/09/04 06:53:37;;;;;;;9.13;2.77;;;20.80;95.10;;;21.53;58.99;98929.84;4987277;28;114148;-77
2022/09/04 06:56:21;;;;;;;3.10;2.50;;;20.90;95.10;;;21.60;59.11;98932.75;4966184;28;123288;-77
2022/09/04 06:59:34;;;;;;;4.27;2.40;;;20.90;95.00;;;21.68;59.05;98927.19;4965612;28;123798;-76
2022/09/04 07:02:33;;;;;;;2.13;1.93;;;21.00;95.00;;;21.74;58.97;98926.47;4971718;28;114243;-77
2022/09/04 07:05:39;;;;;;;2.57;2.37;;;21.10;94.90;;;21.86;58.40;98927.38;5023073;27;113016;-76
2022/09/04 07:08:43;;;;;;;2.90;2.40;;;21.20;94.90;;;21.95;58.55;98934.34;5023649;28;124051;-77
2022/09/04 07:11:36;;;;;;;4.77;2.70;;;21.30;94.80;;;22.04;58.38;98943.25;5009052;28;97208;-76
2022/09/04 07:14:23;;;;;;;3.90;3.03;;;21.40;94.80;;;22.15;58.35;98943.38;5020889;28;114264;-76
2022/09/04 07:17:16;;;;;;;4.70;3.00;;;21.50;94.80;;;22.26;57.69;98946.31;5012069;28;112179;-78
2022/09/04 07:20:30;;;;;;;3.20;2.70;;;21.60;94.70;;;22.34;57.89;98950.03;5018044;28;123098;-78
2022/09/04 07:23:23;;;;;;;3.07;2.60;;;21.70;94.60;;;22.42;57.58;98951.72;5026811;28;124126;-76
2022/09/04 07:25:56;;;;;;;3.07;2.77;;;21.80;94.50;;;22.48;57.33;98955.78;5023786;28;115419;-77
2022/09/04 07:29:10;;;;;;;5.77;2.83;;;21.80;94.40;;;22.50;57.64;98961.84;5012587;28;113996;-76
2022/09/04 07:32:17;;;;;;;2.47;2.20;;;21.80;94.30;;;22.55;57.38;98949.41;5032420;27;125083;-77
2022/09/04 07:35:06;;;;;;;5.70;2.77;;;21.90;94.30;;;22.60;57.54;98958.31;5041331;28;125768;-77
2022/09/04 07:37:50;;;;;;;5.80;2.70;;;23.20;94.90;;;22.62;57.51;98963.53;5032238;28;115127;-82
2022/09/04 07:40:21;;;;;;;6.00;2.80;;;21.90;94.30;;;22.62;57.38;98967.19;5034795;28;114750;-77
2022/09/04 07:43:23;;;;;;;3.00;2.27;;;21.90;94.30;;;22.62;57.53;98966.34;5038292;27;123345;-77
2022/09/04 07:46:12;;;;;;;3.03;2.70;;;21.90;94.20;;;22.64;57.36;98964.75;5036877;27;123512;-81
2022/09/04 07:49:11;;;;;;;2.93;2.60;;;22.00;94.30;;;22.60;57.55;98966.75;5045298;28;113994;-79
2022/09/04 07:52:40;;;;;;;3.00;2.50;;;22.00;94.20;;;22.54;57.46;98981.56;5007326;28;112643;-79
2022/09/04 07:55:39;;;;;;;3.20;2.90;;;21.90;94.10;;;22.51;57.32;98983.16;5023566;28;124904;-80
2022/09/04 07:59:00;;;;;;;4.17;3.13;;;21.90;94.20;;;22.52;57.82;98986.81;5024651;27;123653;-76
2022/09/04 08:01:52;;;;;;;3.33;2.60;;;21.90;94.30;;;22.56;57.80;98987.63;4953221;28;113781;-80
2022/09/04 08:04:45;;;;;;;4.40;2.57;;;21.90;94.30;;;22.62;57.81;98989.72;4963917;28;114121;-76
2022/09/04 08:07:37;;;;;;;3.00;2.63;;;22.00;94.30;;;22.68;57.54;98993.78;5008828;27;123637;-78
2022/09/04 08:10:51;;;;;;;4.17;2.23;;;22.00;94.20;;;22.71;57.44;98995.81;5023079;28;123213;-78
2022/09/04 08:13:41;;;;;;;5.93;2.23;;;22.10;94.30;;;22.79;57.54;98999.50;5020530;28;114224;-77
2022/09/04 08:16:47;;;;;;;3.23;2.70;;;22.10;94.30;;;22.84;57.62;98999.16;5019850;28;112990;-77
2022/09/04 08:19:47;;;;;;;3.73;2.80;;;22.20;94.30;;;22.96;57.31;98997.22;5020371;28;124644;-78
2022/09/04 08:22:48;;;;;;;3.70;2.40;;;22.30;94.30;;;23.01;57.26;98994.88;5006860;28;123476;-81
2022/09/04 08:25:53;;;;;;;5.43;2.90;;;22.40;94.20;;;23.07;57.19;99003.75;5022326;27;113968;-79
2022/09/04 08:28:55;;;;;;;3.17;2.23;;;22.40;94.20;;;23.13;56.98;99008.66;5020746;27;113064;-79
2022/09/04 08:32:04;;;;;;;2.63;2.17;;;22.50;94.20;;;23.18;56.97;99010.28;5018382;28;123334;-79
2022/09/04 08:35:13;;;;;;;2.63;2.23;;;22.60;94.10;;;23.30;56.92;99012.78;5014213;28;124763;-81
2022/09/04 08:38:28;;;;;;;2.67;2.30;;;22.60;94.00;;;23.42;56.96;99008.81;5016901;28;115432;-77
2022/09/04 08:41:15;;;;;;;3.83;2.70;;;22.80;94.00;;;23.55;56.53;99012.13;4984269;28;114886;-81
2022/09/04 08:44:06;;;;;;;2.80;2.50;;;22.90;94.00;;;23.65;56.27;99011.38;4985139;28;124205;-79
2022/09/04 08:47:17;;;;;;;4.07;2.30;;;23.00;93.80;;;23.74;56.25;99008.22;4965533;28;124891;-83
2022/09/04 08:50:28;;;;;;;3.53;2.10;;;23.10;93.70;;;23.81;55.88;99009.06;4976322;28;114516;-79
2022/09/04 08:53:31;;;;;;;2.73;2.47;;;23.20;93.60;;;23.88;55.58;99015.94;4978338;28;113984;-79
2022/09/04 08:56:22;;;;;;;2.57;1.70;;;23.20;93.40;;;23.96;55.37;99021.22;4981254;28;124345;-79
2022/09/04 08:59:28;;;;;;;2.50;2.27;;;23.30;93.20;;;24.05;55.28;99015.22;4969601;28;123668;-79
2022/09/04 09:02:18;;;;;;;3.10;1.93;;;23.40;93.20;;;24.12;55.14;99015.22;4984789;28;114529;-79
2022/09/04 09:05:03;;;;;;;2.70;2.20;;;23.50;93.00;;;24.22;55.04;99005.16;4977150;28;114058;-78
2022/09/04 09:08:11;;;;;;;3.30;1.90;;;23.60;92.90;;;24.32;54.59;99014.88;4982190;28;123985;-80
2022/09/04 09:11:19;;;;;;;3.20;2.27;;;23.70;92.80;;;24.39;54.29;99006.41;4980756;28;123041;-78
2022/09/04 09:14:15;;;;;;;2.67;2.23;;;23.80;92.60;;;24.44;53.81;99006.84;4962472;28;113986;-78
2022/09/04 09:17:04;;;;;;;2.87;1.90;;;23.80;92.20;;;24.49;53.55;99008.47;4979571;28;114368;-79
2022/09/04 09:19:59;;;;;;;2.17;1.97;;;23.90;92.10;;;24.54;53.43;99010.13;5023993;27;124114;-78
2022/09/04 09:23:08;;;;;;;3.47;2.30;;;23.90;92.00;;;24.61;53.29;99010.94;5020476;28;124099;-80
2022/09/04 09:26:17;;;;;;;3.97;2.07;;;24.00;92.00;;;24.64;53.08;99014.97;5021085;27;114388;-77
2022/09/04 09:28:53;;;;;;;2.47;1.80;;;24.10;91.60;;;24.66;52.55;99013.38;5009323;27;113737;-80
2022/09/04 09:31:44;;;;;;;3.00;2.07;;;24.10;91.40;;;24.67;52.53;99014.97;5017783;27;124124;-78
2022/09/04 09:34:54;;;;;;;2.37;1.77;;;24.10;91.20;;;24.67;52.73;99008.50;5010657;27;124322;-79
2022/09/04 09:37:58;;;;;;;2.37;1.77;;;24.20;91.20;;;24.69;52.14;98995.59;5016058;28;115692;-82
2022/09/04 09:40:55;;;;;;;1.87;1.50;;;24.20;90.90;;;24.70;51.56;99002.06;5010084;28;115001;-79
2022/09/04 09:43:40;;;;;;;2.30;1.70;;;24.20;90.60;;;24.69;51.28;98995.59;5008725;28;124059;-79
2022/09/04 09:46:52;;;;;;;1.90;1.57;;;24.20;90.20;;;24.72;51.13;98993.16;5010689;28;123040;-79
2022/09/04 09:50:08;;;;;;;2.03;1.60;;;24.30;90.10;;;24.77;51.16;98992.75;4996056;28;114211;-79
2022/09/04 09:53:09;;;;;;;2.40;1.50;;;24.30;90.20;;;24.80;50.94;98994.81;5026876;27;115631;-80
2022/09/04 09:55:54;;;;;;;2.03;1.80;;;24.30;90.10;;;24.83;51.13;98988.34;5022306;28;124137;-80
2022/09/04 09:58:45;;;;;;;2.13;1.87;;;24.30;90.20;;;24.89;51.08;98989.53;5011632;28;125347;-80
2022/09/04 10:01:56;;;;;;;2.03;1.70;;;24.30;90.20;;;24.92;50.48;98992.34;5012029;27;114319;-79
2022/09/04 10:05:00;;;;;;;1.80;1.60;;;24.40;90.00;;;24.99;50.17;98994.38;4995630;28;112903;-77
2022/09/04 10:07:27;;;;;;;3.70;1.77;;;24.40;89.40;;;25.06;50.25;99000.00;5010309;28;123185;-78
2022/09/04 10:10:17;;;;;;;2.23;1.50;;;24.50;89.40;;;25.08;49.46;99000.41;5019574;28;122727;-77
2022/09/04 10:13:26;;;;;;;1.93;1.60;;;24.60;88.00;;;25.08;49.08;98996.78;5026084;28;115100;-77
2022/09/04 10:16:08;;;;;;;1.60;1.50;;;24.60;87.90;;;25.11;49.26;98984.66;5019636;27;113657;-88
2022/09/04 10:19:17;;;;;;;2.27;1.40;;;24.60;87.60;;;25.13;48.72;98990.72;5018384;28;125117;-78
2022/09/04 10:22:10;;;;;;;3.07;1.60;;;24.60;86.80;;;25.16;48.37;98983.47;5023787;28;124025;-78
2022/09/04 10:24:37;;;;;;;2.20;1.63;;;24.70;86.90;;;25.24;48.20;98979.44;5022777;27;114372;-78
2022/09/04 10:27:30;;;;;;;1.63;1.33;;;24.70;86.50;;;25.32;48.32;98983.84;5024345;28;114064;-77
2022/09/04 10:30:07;;;;;;;4.33;1.77;;;24.80;86.20;;;25.42;48.11;98980.19;5022655;27;124129;-80
2022/09/04 10:33:05;;;;;;;2.33;1.50;;;24.90;86.60;;;25.49;47.63;98971.66;5024341;28;123874;-78
2022/09/04 10:36:03;;;;;;;2.50;1.87;;;24.90;85.70;;;25.55;47.15;98978.53;5021928;27;115401;-79
2022/09/04 10:42:03;;;;;;;2.60;1.67;;;25.10;84.30;;;25.61;45.95;98976.09;5025208;28;124610;-77
2022/09/04 10:44:43;;;;;;;9.33;1.80;;;25.10;82.60;;;25.62;45.67;98979.72;5019041;27;124232;-81
2022/09/04 10:48:01;;;;;;;2.33;1.50;;;25.10;82.10;;;25.65;45.46;98978.91;5019005;28;114186;-77
2022/09/04 10:50:55;;;;;;;3.30;1.70;;;25.10;81.90;;;25.69;45.31;98983.34;5016512;28;113191;-79
2022/09/04 10:54:15;;;;;;;1.97;1.77;;;25.20;81.50;;;25.67;45.08;98980.09;5022246;28;124545;-79
2022/09/04 10:57:30;;;;;;;2.30;1.70;;;25.20;80.40;;;25.70;44.66;98973.63;5014952;28;121840;-80
2022/09/04 11:00:03;;;;;;;1.87;1.63;;;25.30;80.10;;;25.73;44.28;98974.81;5020621;28;114082;-80
2022/09/04 11:03:11;;;;;;;2.23;1.40;;;25.30;80.00;;;25.79;44.59;98964.69;5025079;27;113986;-79
2022/09/04 11:06:02;;;;;;;1.73;1.43;;;25.30;79.80;;;25.91;43.87;98969.91;5024350;28;125408;-80
2022/09/04 11:08:37;;;;;;;3.07;1.50;;;25.40;79.00;;;26.03;43.62;98962.16;5022911;28;123811;-78
2022/09/04 11:11:51;;;;;;;2.13;1.60;;;25.50;78.20;;;26.16;43.38;98969.78;5017966;28;114460;-81
2022/09/04 11:14:45;;;;;;;2.20;1.63;;;25.60;78.00;;;26.35;42.60;98962.78;5019097;28;114093;-78
2022/09/04 11:17:27;;;;;;;2.50;1.40;;;25.70;77.50;;;26.50;41.90;98974.03;5016862;28;124166;-78
2022/09/04 11:20:14;;;;;;;3.87;2.40;;;25.90;76.50;;;26.65;41.99;98961.38;5028310;27;123895;-78
2022/09/04 11:23:05;;;;;;;2.07;1.70;;;26.00;76.20;;;26.82;41.74;98957.59;5008441;28;113086;-76
2022/09/04 11:26:19;;;;;;;5.20;2.07;;;26.10;75.30;;;26.97;41.53;98958.25;5017915;28;113996;-76
2022/09/04 11:29:17;;;;;;;2.07;1.20;;;26.30;74.20;;;27.14;40.69;98952.84;5017163;28;124217;-80
2022/09/04 11:32:05;;;;;;;4.67;1.73;;;26.50;73.80;;;27.29;40.46;98951.47;5014936;27;122766;-75
2022/09/04 11:35:13;;;;;;;5.27;2.13;;;26.70;73.20;;;27.38;40.09;98950.97;5014341;27;114290;-76
2022/09/04 11:38:07;;;;;;;1.87;1.40;;;26.80;72.50;;;27.47;39.79;98956.97;5010133;28;115362;-77
2022/09/04 11:41:09;;;;;;;1.80;1.30;;;26.90;72.10;;;27.49;39.89;98957.34;5025890;28;124685;-79
2022/09/04 11:44:15;;;;;;;1.40;1.30;;;26.90;71.30;;;27.56;39.56;98953.63;5024871;27;123966;-80
2022/09/04 11:47:13;;;;;;;3.37;1.80;;;27.00;70.50;;;27.58;38.77;98956.84;5023723;28;113730;-79
2022/09/04 11:50:15;;;;;;;1.80;1.40;;;27.00;68.80;;;27.57;38.78;98958.09;5025428;28;114093;-81
2022/09/04 11:52:59;;;;;;;4.50;1.43;;;27.00;69.00;;;27.59;39.08;98959.25;5006983;27;123372;-79
2022/09/04 11:56:10;;;;;;;2.03;1.67;;;27.10;69.40;;;27.62;38.70;98963.25;5028285;27;123263;-81
2022/09/04 11:59:02;;;;;;;1.70;1.27;;;27.10;68.60;;;27.61;37.97;98953.16;5009377;27;114431;-76
2022/09/04 12:02:09;;;;;;;1.60;1.30;;;27.10;67.50;;;27.53;37.96;98958.09;5028156;27;113833;-80
2022/09/04 12:05:09;;;;;;;1.50;1.40;;;27.20;66.50;;;27.46;38.02;98963.88;5018503;27;124468;-80
2022/09/04 12:08:07;;;;;;;2.73;1.80;;;27.10;66.40;;;27.39;38.19;98956.25;4988596;28;123848;-78
2022/09/04 12:10:52;;;;;;;1.63;1.30;;;27.10;66.00;;;27.38;38.53;98960.31;5008517;28;113587;-77
2022/09/04 12:13:45;;;;;;;1.70;1.50;;;27.00;66.90;;;27.39;38.75;98958.28;5006334;27;114083;-77
2022/09/04 12:16:56;;;;;;;1.90;1.50;;;27.00;66.80;;;27.37;38.16;98958.69;5008772;28;123993;-80
2022/09/04 12:19:49;;;;;;;2.40;1.50;;;27.00;66.00;;;27.37;38.47;98960.72;5009648;27;123895;-79
2022/09/04 12:22:36;;;;;;;2.53;1.80;;;27.00;66.30;;;27.43;38.67;98964.69;5011042;28;114504;-77